Islas Malvinas Airport


Codes: SAAR/ROS
Name: Islas Malvinas Airport
City: Rosario
Country: Argentina
Elevation: 85 ft.
Wikipedia:

Photos at Islas Malvinas Airport


   Photos courtesy of SpottingLog. You can add your own sightings and photos by signing up for a free trial today.



LV-WXW, 11-Feb-2014
© Luis Vaz

LV-BIC, 11-Feb-2014
© Luis Vaz

LV-LCX, 11-Feb-2014
© Luis Vaz

LV-ONS, 11-Feb-2014
© Luis Vaz

LV-LWD, 11-Feb-2014
© Luis Vaz

LV-CID, 11-Feb-2014
© Luis Vaz

LV-CYC, 10-Feb-2014
© Luis Vaz

LV-CTX, 10-Feb-2014
© Luis Vaz


Weather at Islas Malvinas Airport


Time (UTC)DescriptionTempratureWindCloud coverageVisibilityPressureHumidity
23-May-2024 21:00Overcast Clouds13°C11 mph, SE100%10000m1014hPa72%
24-May-2024 00:00Overcast Clouds14°C13 mph, S100%10000m1018hPa59%
24-May-2024 03:00Overcast Clouds12°C16 mph, S100%10000m1023hPa55%
24-May-2024 06:00Light Rain10°C9 mph, S100%10000m1025hPa85%
24-May-2024 09:00Light Rain9°C9 mph, S86%10000m1025hPa86%
24-May-2024 12:00Overcast Clouds9°C9 mph, S88%10000m1027hPa75%
24-May-2024 15:00Broken Clouds11°C11 mph, S56%10000m1027hPa46%
24-May-2024 18:00Scattered Clouds13°C13 mph, S30%10000m1026hPa38%
24-May-2024 21:00Broken Clouds11°C9 mph, S69%10000m1026hPa43%
25-May-2024 00:00Overcast Clouds9°C7 mph, S85%10000m1028hPa51%
25-May-2024 03:00Overcast Clouds8°C7 mph, S100%10000m1030hPa55%
25-May-2024 06:00Overcast Clouds7°C7 mph, S100%10000m1030hPa58%
25-May-2024 09:00Overcast Clouds6°C7 mph, SE100%10000m1030hPa66%
25-May-2024 12:00Overcast Clouds6°C7 mph, SE100%10000m1032hPa65%
25-May-2024 15:00Overcast Clouds9°C7 mph, SE98%10000m1032hPa42%
25-May-2024 18:00Overcast Clouds11°C7 mph, SE99%10000m1030hPa31%
25-May-2024 21:00Overcast Clouds9°C4 mph, SE88%10000m1029hPa35%
26-May-2024 00:00Broken Clouds7°C4 mph, E63%10000m1030hPa59%
26-May-2024 03:00Clear Sky6°C4 mph, E9%10000m1031hPa71%
26-May-2024 06:00Broken Clouds8°C4 mph, SE51%10000m1030hPa61%
26-May-2024 09:00Overcast Clouds8°C7 mph, E100%10000m1029hPa59%
26-May-2024 12:00Overcast Clouds8°C7 mph, E100%10000m1030hPa60%
26-May-2024 15:00Overcast Clouds10°C7 mph, E99%10000m1030hPa50%
26-May-2024 18:00Overcast Clouds11°C7 mph, E100%10000m1027hPa45%
26-May-2024 21:00Overcast Clouds10°C7 mph, E100%10000m1027hPa50%
27-May-2024 00:00Overcast Clouds10°C4 mph, SE100%10000m1029hPa55%
27-May-2024 03:00Overcast Clouds9°C4 mph, S100%10000m1029hPa60%
27-May-2024 06:00Overcast Clouds9°C4 mph, S100%10000m1028hPa62%
27-May-2024 09:00Overcast Clouds9°C4 mph, SE100%10000m1027hPa62%
27-May-2024 12:00Overcast Clouds8°C4 mph, S90%10000m1029hPa65%
27-May-2024 15:00Few Clouds12°C7 mph, S18%10000m1029hPa48%
27-May-2024 18:00Few Clouds14°C7 mph, S12%10000m1026hPa41%
27-May-2024 21:00Clear Sky12°C7 mph, SE7%10000m1026hPa48%
28-May-2024 00:00Clear Sky9°C4 mph, SE8%10000m1027hPa57%
28-May-2024 03:00Clear Sky8°C0 mph, E1%10000m1027hPa66%
28-May-2024 06:00Clear Sky7°C2 mph, E2%10000m1027hPa69%
28-May-2024 09:00Clear Sky6°C2 mph, NE7%10000m1026hPa73%
28-May-2024 12:00Clear Sky7°C2 mph, NE3%10000m1027hPa71%
28-May-2024 15:00Few Clouds13°C7 mph, NE14%10000m1027hPa51%
28-May-2024 18:00Few Clouds15°C7 mph, N16%10000m1024hPa42%